Time,TemperatureF,DewpointF,PressureIn,WindDirection,WindDirectionDegrees,WindSpeedMPH,WindSpeedGustMPH,Humidity,HourlyPrecipIn,Conditions,Clouds,dailyrainin,SoftwareType,DateUTC
2013-02-10 00:00:00,10.0,1.3,30.34,NNE,22,11.6,11.6,67,-99.99,,,-99.99,tws,2013-02-10 05:00:00,
2013-02-10 00:03:00,10.3,1.9,30.34,NNE,22,12.3,12.3,68,-99.99,,,-99.99,tws,2013-02-10 05:03:00,
2013-02-10 00:04:00,10.1,1.7,30.34,NE,45,12.1,12.1,68,-99.99,,,-99.99,tws,2013-02-10 05:04:00,
2013-02-10 00:09:00,10.3,1.8,30.34,NE,45,12.9,12.9,68,-99.99,,,-99.99,tws,2013-02-10 05:09:00,
2013-02-10 00:13:00,10.4,1.8,30.34,NE,45,11.9,11.9,67,-99.99,,,-99.99,tws,2013-02-10 05:13:00,
2013-02-10 00:18:00,10.3,1.6,30.34,NE,45,10.4,10.4,67,-99.99,,,-99.99,tws,2013-02-10 05:18:00,
2013-02-10 00:23:00,10.3,1.4,30.34,NE,45,14.2,14.2,67,-99.99,,,-99.99,tws,2013-02-10 05:23:00,
2013-02-10 00:28:00,10.1,1.4,30.34,NE,45,9.9,9.9,67,-99.99,,,-99.99,tws,2013-02-10 05:28:00,
2013-02-10 00:33:00,10.2,1.4,30.34,NNE,22,9.7,9.7,67,-99.99,,,-99.99,tws,2013-02-10 05:33:00,
2013-02-10 00:38:00,9.9,1.2,30.35,NNE,22,6.8,6.8,67,-99.99,,,-99.99,tws,2013-02-10 05:38:00,
2013-02-10 00:43:00,10.0,1.3,30.34,ENE,67,11.8,11.8,67,-99.99,,,-99.99,tws,2013-02-10 05:43:00,
2013-02-10 00:48:00,9.9,1.2,30.35,NNE,22,9.0,9.0,67,-99.99,,,-99.99,tws,2013-02-10 05:48:00,
2013-02-10 00:53:00,9.8,1.1,30.34,NNE,22,7.5,7.5,67,-99.99,,,-99.99,tws,2013-02-10 05:53:00,
2013-02-10 00:58:00,9.5,1.1,30.34,NE,45,10.7,10.7,68,-99.99,,,-99.99,tws,2013-02-10 05:58:00,
2013-02-10 01:03:00,9.4,0.9,30.34,NNE,22,11.0,11.0,68,-99.99,,,-99.99,tws,2013-02-10 06:03:00,
2013-02-10 01:08:00,9.5,1.1,30.34,NNE,22,9.3,9.3,68,-99.99,,,-99.99,tws,2013-02-10 06:08:00,
2013-02-10 01:13:00,9.6,1.3,30.35,North,0,6.4,6.4,68,-99.99,,,-99.99,tws,2013-02-10 06:13:00,
2013-02-10 01:18:00,9.5,1.1,30.35,NE,45,8.5,8.5,68,-99.99,,,-99.99,tws,2013-02-10 06:18:00,
2013-02-10 01:23:00,9.4,1.0,30.35,NE,45,2.9,2.9,68,-99.99,,,-99.99,tws,2013-02-10 06:23:00,
2013-02-10 01:28:00,9.2,0.8,30.36,NNE,22,3.2,3.2,68,-99.99,,,-99.99,tws,2013-02-10 06:28:00,
2013-02-10 01:33:00,8.5,0.4,30.36,NNE,22,2.5,2.5,69,-99.99,,,-99.99,tws,2013-02-10 06:33:00,
2013-02-10 01:38:00,7.2,-0.5,30.36,West,270,3.6,3.6,70,-99.99,,,-99.99,tws,2013-02-10 06:38:00,
2013-02-10 01:43:00,8.6,0.5,30.36,NW,315,2.9,2.9,69,-99.99,,,-99.99,tws,2013-02-10 06:43:00,
2013-02-10 01:48:00,7.8,0.0,30.37,NW,315,2.8,2.8,70,-99.99,,,-99.99,tws,2013-02-10 06:48:00,
2013-02-10 01:53:00,8.9,0.7,30.36,WNW,292,2.0,2.0,69,-99.99,,,-99.99,tws,2013-02-10 06:53:00,
2013-02-10 01:58:00,8.4,0.3,30.36,WNW,292,3.7,3.7,69,-99.99,,,-99.99,tws,2013-02-10 06:58:00,
2013-02-10 02:03:00,8.6,0.3,30.37,NW,315,3.8,3.8,68,-99.99,,,-99.99,tws,2013-02-10 07:03:00,
2013-02-10 02:08:00,8.2,0.2,30.37,NNW,337,3.2,3.2,69,-99.99,,,-99.99,tws,2013-02-10 07:08:00,
2013-02-10 02:13:00,8.3,0.5,30.36,North,360,3.7,3.7,70,-99.99,,,-99.99,tws,2013-02-10 07:13:00,
2013-02-10 02:18:00,8.5,0.6,30.36,North,0,4.9,4.9,69,-99.99,,,-99.99,tws,2013-02-10 07:18:00,
2013-02-10 02:23:00,8.6,0.7,30.37,NNE,22,3.4,3.4,70,-99.99,,,-99.99,tws,2013-02-10 07:23:00,
2013-02-10 02:28:00,8.1,0.2,30.37,North,360,3.3,3.3,69,-99.99,,,-99.99,tws,2013-02-10 07:28:00,
2013-02-10 02:33:00,8.0,0.2,30.37,North,0,5.4,5.4,70,-99.99,,,-99.99,tws,2013-02-10 07:33:00,
2013-02-10 02:38:00,8.0,0.3,30.37,NNE,22,4.2,4.2,70,-99.99,,,-99.99,tws,2013-02-10 07:38:00,
2013-02-10 02:43:00,7.4,-0.3,30.38,North,360,5.0,5.0,70,-99.99,,,-99.99,tws,2013-02-10 07:43:00,
2013-02-10 02:48:00,7.7,0.0,30.37,NNE,22,5.8,5.8,70,-99.99,,,-99.99,tws,2013-02-10 07:48:00,
2013-02-10 02:53:00,7.4,-0.2,30.37,North,0,6.2,6.2,70,-99.99,,,-99.99,tws,2013-02-10 07:53:00,
2013-02-10 02:58:00,7.6,0.0,30.37,North,360,6.0,6.0,70,-99.99,,,-99.99,tws,2013-02-10 07:58:00,
2013-02-10 03:03:00,4.8,-1.9,30.38,NNW,337,2.8,2.8,73,-99.99,,,-99.99,tws,2013-02-10 08:03:00,
2013-02-10 03:08:00,7.4,-0.3,30.38,North,0,6.3,6.3,70,-99.99,,,-99.99,tws,2013-02-10 08:08:00,
2013-02-10 03:13:00,8.1,0.2,30.38,NNE,22,4.2,4.2,70,-99.99,,,-99.99,tws,2013-02-10 08:13:00,
2013-02-10 03:18:00,7.3,-0.3,30.38,NNE,22,11.2,11.2,70,-99.99,,,-99.99,tws,2013-02-10 08:18:00,
2013-02-10 03:23:00,7.6,-0.1,30.38,NNE,22,10.8,10.8,70,-99.99,,,-99.99,tws,2013-02-10 08:23:00,
2013-02-10 03:28:00,8.0,0.0,30.39,NNE,22,11.3,11.3,69,-99.99,,,-99.99,tws,2013-02-10 08:28:00,
2013-02-10 03:33:00,8.1,0.0,30.39,NNE,22,9.4,9.4,69,-99.99,,,-99.99,tws,2013-02-10 08:33:00,
2013-02-10 03:38:00,7.8,-0.2,30.38,NNE,22,11.2,11.2,69,-99.99,,,-99.99,tws,2013-02-10 08:38:00,
2013-02-10 03:43:00,8.1,-0.1,30.38,NNE,22,11.9,11.9,68,-99.99,,,-99.99,tws,2013-02-10 08:43:00,
2013-02-10 03:48:00,8.2,-0.2,30.39,NNE,22,14.2,14.2,68,-99.99,,,-99.99,tws,2013-02-10 08:48:00,
2013-02-10 03:53:00,8.5,0.1,30.38,NE,45,10.9,10.9,68,-99.99,,,-99.99,tws,2013-02-10 08:53:00,
2013-02-10 03:58:00,8.5,0.1,30.38,NE,45,14.3,14.3,68,-99.99,,,-99.99,tws,2013-02-10 08:58:00,
2013-02-10 04:03:00,8.5,0.0,30.39,NNE,22,16.7,16.7,67,-99.99,,,-99.99,tws,2013-02-10 09:03:00,
2013-02-10 04:08:00,8.5,0.0,30.39,NE,45,14.8,14.8,67,-99.99,,,-99.99,tws,2013-02-10 09:08:00,
2013-02-10 04:13:00,8.3,-0.1,30.39,NNE,22,14.5,14.5,68,-99.99,,,-99.99,tws,2013-02-10 09:13:00,
2013-02-10 04:18:00,8.4,0.0,30.39,North,0,13.8,13.8,68,-99.99,,,-99.99,tws,2013-02-10 09:18:00,
2013-02-10 04:23:00,8.4,0.0,30.39,NE,45,15.0,15.0,67,-99.99,,,-99.99,tws,2013-02-10 09:23:00,
2013-02-10 04:28:00,8.5,0.1,30.39,NE,45,15.5,15.5,68,-99.99,,,-99.99,tws,2013-02-10 09:28:00,
2013-02-10 04:33:00,8.3,0.0,30.39,NNE,22,12.3,12.3,68,-99.99,,,-99.99,tws,2013-02-10 09:33:00,
2013-02-10 04:38:00,8.6,0.4,30.39,NNE,22,5.3,5.3,69,-99.99,,,-99.99,tws,2013-02-10 09:38:00,
2013-02-10 04:43:00,6.8,-0.8,30.39,NNW,337,2.0,2.0,70,-99.99,,,-99.99,tws,2013-02-10 09:43:00,
2013-02-10 04:48:00,7.2,-0.5,30.38,NNW,337,4.6,4.6,70,-99.99,,,-99.99,tws,2013-02-10 09:48:00,
2013-02-10 04:53:00,7.0,-0.7,30.39,NNW,337,4.9,4.9,70,-99.99,,,-99.99,tws,2013-02-10 09:53:00,
2013-02-10 04:58:00,6.7,-0.9,30.39,North,0,5.7,5.7,70,-99.99,,,-99.99,tws,2013-02-10 09:58:00,
2013-02-10 05:03:00,7.2,-0.6,30.39,North,360,5.4,5.4,69,-99.99,,,-99.99,tws,2013-02-10 10:03:00,
2013-02-10 05:08:00,6.9,-1.0,30.39,North,0,7.5,7.5,69,-99.99,,,-99.99,tws,2013-02-10 10:08:00,
2013-02-10 05:13:00,6.7,-0.9,30.40,North,360,6.6,6.6,70,-99.99,,,-99.99,tws,2013-02-10 10:13:00,
2013-02-10 05:18:00,7.7,0.0,30.39,North,0,5.3,5.3,70,-99.99,,,-99.99,tws,2013-02-10 10:18:00,
2013-02-10 05:23:00,6.9,-0.8,30.40,WNW,292,4.9,4.9,70,-99.99,,,-99.99,tws,2013-02-10 10:23:00,
2013-02-10 05:28:00,6.8,-0.8,30.41,NW,315,7.5,7.5,70,-99.99,,,-99.99,tws,2013-02-10 10:28:00,
2013-02-10 05:33:00,7.2,-0.7,30.41,North,360,7.7,7.7,69,-99.99,,,-99.99,tws,2013-02-10 10:33:00,
2013-02-10 05:38:00,7.3,-0.4,30.41,NNW,337,3.9,3.9,70,-99.99,,,-99.99,tws,2013-02-10 10:38:00,
2013-02-10 05:43:00,5.8,-1.1,30.41,North,360,1.2,1.2,72,-99.99,,,-99.99,tws,2013-02-10 10:43:00,
2013-02-10 05:48:00,6.7,-0.5,30.41,North,360,1.5,1.5,71,-99.99,,,-99.99,tws,2013-02-10 10:48:00,
2013-02-10 05:53:00,6.3,-1.0,30.41,NW,315,0.0,0.0,71,-99.99,,,-99.99,tws,2013-02-10 10:53:00,
2013-02-10 05:58:00,7.0,-0.2,30.42,NNW,337,0.0,0.0,71,-99.99,,,-99.99,tws,2013-02-10 10:58:00,
2013-02-10 06:03:00,7.2,0.2,30.42,NE,45,0.0,0.0,73,-99.99,,,-99.99,tws,2013-02-10 11:03:00,
2013-02-10 06:08:00,6.7,-0.5,30.41,ENE,67,1.8,1.8,71,-99.99,,,-99.99,tws,2013-02-10 11:08:00,
2013-02-10 06:13:00,6.6,-0.1,30.42,NNE,22,0.0,0.0,73,-99.99,,,-99.99,tws,2013-02-10 11:13:00,
2013-02-10 06:18:00,3.8,-2.2,30.42,WSW,247,1.4,1.4,75,-99.99,,,-99.99,tws,2013-02-10 11:18:00,
2013-02-10 06:23:00,4.6,-2.0,30.43,West,270,0.0,0.0,73,-99.99,,,-99.99,tws,2013-02-10 11:23:00,
2013-02-10 06:28:00,4.9,-1.5,30.43,West,270,1.1,1.1,74,-99.99,,,-99.99,tws,2013-02-10 11:28:00,
2013-02-10 06:33:00,4.7,-1.4,30.43,West,270,0.0,0.0,75,-99.99,,,-99.99,tws,2013-02-10 11:33:00,
2013-02-10 06:38:00,6.0,-0.1,30.44,NNW,337,3.7,3.7,75,-99.99,,,-99.99,tws,2013-02-10 11:38:00,
2013-02-10 06:43:00,5.8,-0.6,30.44,West,270,3.6,3.6,74,-99.99,,,-99.99,tws,2013-02-10 11:43:00,
2013-02-10 06:48:00,6.1,0.1,30.45,WNW,292,0.4,0.4,75,-99.99,,,-99.99,tws,2013-02-10 11:48:00,
2013-02-10 06:53:00,6.5,0.6,30.45,NW,315,2.0,2.0,76,-99.99,,,-99.99,tws,2013-02-10 11:53:00,
2013-02-10 06:58:00,6.6,0.7,30.45,NNW,337,6.1,6.1,76,-99.99,,,-99.99,tws,2013-02-10 11:58:00,
2013-02-10 07:03:00,6.8,1.1,30.45,North,0,4.6,4.6,77,-99.99,,,-99.99,tws,2013-02-10 12:03:00,
2013-02-10 07:08:00,6.0,0.3,30.45,WNW,292,0.0,0.0,76,-99.99,,,-99.99,tws,2013-02-10 12:08:00,
2013-02-10 07:13:00,1.8,-2.9,30.46,West,270,2.3,2.3,80,-99.99,,,-99.99,tws,2013-02-10 12:13:00,
2013-02-10 07:18:00,3.9,-0.8,30.46,West,270,2.4,2.4,80,-99.99,,,-99.99,tws,2013-02-10 12:18:00,
2013-02-10 07:23:00,4.2,-1.1,30.47,West,270,0.0,0.0,78,-99.99,,,-99.99,tws,2013-02-10 12:23:00,
2013-02-10 07:28:00,6.9,1.2,30.47,WSW,247,0.0,0.0,77,-99.99,,,-99.99,tws,2013-02-10 12:28:00,
2013-02-10 07:33:00,6.0,0.0,30.47,SW,225,0.0,0.0,75,-99.99,,,-99.99,tws,2013-02-10 12:33:00,
2013-02-10 07:38:00,6.3,-0.1,30.48,SSW,202,0.0,0.0,74,-99.99,,,-99.99,tws,2013-02-10 12:38:00,
2013-02-10 07:43:00,8.7,2.0,30.48,SSE,157,0.0,0.0,73,-99.99,,,-99.99,tws,2013-02-10 12:43:00,
2013-02-10 07:48:00,8.9,1.3,30.48,SE,135,0.0,0.0,71,-99.99,,,-99.99,tws,2013-02-10 12:48:00,
2013-02-10 07:53:00,7.8,0.3,30.48,SE,135,0.0,0.0,70,-99.99,,,-99.99,tws,2013-02-10 12:53:00,
2013-02-10 07:58:00,10.1,2.0,30.48,SE,135,0.0,0.0,69,-99.99,,,-99.99,tws,2013-02-10 12:58:00,
2013-02-10 08:03:00,10.1,1.6,30.48,SE,135,0.0,0.0,68,-99.99,,,-99.99,tws,2013-02-10 13:03:00,
2013-02-10 08:08:00,9.1,0.4,30.48,ESE,112,0.0,0.0,67,-99.99,,,-99.99,tws,2013-02-10 13:08:00,
2013-02-10 08:13:00,9.1,0.9,30.48,ESE,112,0.0,0.0,69,-99.99,,,-99.99,tws,2013-02-10 13:13:00,
2013-02-10 08:18:00,11.1,2.0,30.48,ESE,112,0.0,0.0,66,-99.99,,,-99.99,tws,2013-02-10 13:18:00,
2013-02-10 08:23:00,12.6,2.3,30.48,ESE,112,0.0,0.0,63,-99.99,,,-99.99,tws,2013-02-10 13:23:00,
2013-02-10 08:28:00,13.4,3.4,30.48,North,0,0.0,0.0,64,-99.99,,,-99.99,tws,2013-02-10 13:28:00,
2013-02-10 08:33:00,17.3,5.1,30.48,NNE,22,2.0,2.0,58,-99.99,,,-99.99,tws,2013-02-10 13:33:00,
2013-02-10 08:38:00,12.1,2.8,30.48,NNE,22,1.2,1.2,65,-99.99,,,-99.99,tws,2013-02-10 13:38:00,
2013-02-10 08:43:00,12.5,2.8,30.48,NNE,22,2.1,2.1,65,-99.99,,,-99.99,tws,2013-02-10 13:43:00,
2013-02-10 08:48:00,13.4,3.2,30.48,NNE,22,1.8,1.8,63,-99.99,,,-99.99,tws,2013-02-10 13:48:00,
2013-02-10 08:53:00,14.9,3.8,30.48,North,360,1.3,1.3,61,-99.99,,,-99.99,tws,2013-02-10 13:53:00,
2013-02-10 08:58:00,15.4,3.7,30.48,NE,45,2.2,2.2,59,-99.99,,,-99.99,tws,2013-02-10 13:58:00,
2013-02-10 09:03:00,14.7,2.8,30.48,North,360,5.9,5.9,58,-99.99,,,-99.99,tws,2013-02-10 14:03:00,
2013-02-10 09:08:00,14.3,2.6,30.48,North,360,6.3,6.3,59,-99.99,,,-99.99,tws,2013-02-10 14:08:00,
2013-02-10 09:13:00,14.9,2.9,30.49,NNW,337,2.6,2.6,58,-99.99,,,-99.99,tws,2013-02-10 14:13:00,
2013-02-10 09:18:00,17.4,4.1,30.49,North,0,4.3,4.3,55,-99.99,,,-99.99,tws,2013-02-10 14:18:00,
2013-02-10 09:23:00,17.4,3.6,30.50,North,0,7.7,7.7,54,-99.99,,,-99.99,tws,2013-02-10 14:23:00,
2013-02-10 09:28:00,19.0,4.6,30.50,North,360,5.7,5.7,53,-99.99,,,-99.99,tws,2013-02-10 14:28:00,
2013-02-10 09:33:00,16.7,3.4,30.50,NNW,337,7.8,7.8,55,-99.99,,,-99.99,tws,2013-02-10 14:33:00,
2013-02-10 09:39:00,17.4,4.2,30.48,NNE,22,7.4,7.4,55,-99.99,,,-99.99,tws,2013-02-10 14:39:00,
2013-02-10 09:44:00,18.0,4.4,30.48,NNE,22,11.0,11.0,55,-99.99,,,-99.99,tws,2013-02-10 14:44:00,
2013-02-10 09:49:00,18.4,4.7,30.48,NE,45,9.5,9.5,54,-99.99,,,-99.99,tws,2013-02-10 14:49:00,
2013-02-10 09:54:00,21.3,6.9,30.48,NNW,337,9.5,9.5,53,-99.99,,,-99.99,tws,2013-02-10 14:54:00,
2013-02-10 09:59:00,20.8,6.3,30.48,NNE,22,6.2,6.2,53,-99.99,,,-99.99,tws,2013-02-10 14:59:00,
2013-02-10 10:04:00,20.9,6.0,30.48,NNE,22,13.9,13.9,52,-99.99,,,-99.99,tws,2013-02-10 15:04:00,
2013-02-10 10:10:00,22.5,7.1,30.49,North,0,6.9,6.9,51,-99.99,,,-99.99,tws,2013-02-10 15:10:00,
2013-02-10 10:15:00,24.1,8.1,30.50,North,0,6.8,6.8,50,-99.99,,,-99.99,tws,2013-02-10 15:15:00,
2013-02-10 10:20:00,25.3,8.6,30.50,NNE,22,1.6,1.6,48,-99.99,,,-99.99,tws,2013-02-10 15:20:00,
2013-02-10 10:25:00,24.6,8.1,30.50,North,360,2.0,2.0,49,-99.99,,,-99.99,tws,2013-02-10 15:25:00,
2013-02-10 10:30:00,27.2,8.9,30.50,ENE,67,8.6,8.6,45,-99.99,,,-99.99,tws,2013-02-10 15:30:00,
2013-02-10 10:35:00,25.8,8.3,30.50,ENE,67,3.2,3.2,47,-99.99,,,-99.99,tws,2013-02-10 15:35:00,
2013-02-10 10:40:00,24.0,7.7,30.50,East,90,6.2,6.2,49,-99.99,,,-99.99,tws,2013-02-10 15:40:00,
2013-02-10 10:45:00,24.3,7.4,30.50,NNE,22,9.4,9.4,48,-99.99,,,-99.99,tws,2013-02-10 15:45:00,
2013-02-10 10:50:00,25.0,8.5,30.49,ESE,112,5.6,5.6,49,-99.99,,,-99.99,tws,2013-02-10 15:50:00,
2013-02-10 10:55:00,26.8,8.6,30.48,ENE,67,10.4,10.4,45,-99.99,,,-99.99,tws,2013-02-10 15:55:00,
2013-02-10 11:00:00,25.5,8.6,30.48,NNE,22,6.2,6.2,48,-99.99,,,-99.99,tws,2013-02-10 16:00:00,
2013-02-10 11:06:00,26.3,8.5,30.48,East,90,7.3,7.3,46,-99.99,,,-99.99,tws,2013-02-10 16:06:00,
2013-02-10 11:11:00,26.7,9.3,30.48,NNE,22,6.3,6.3,47,-99.99,,,-99.99,tws,2013-02-10 16:11:00,
2013-02-10 11:16:00,25.3,8.0,30.48,NNW,337,7.1,7.1,47,-99.99,,,-99.99,tws,2013-02-10 16:16:00,
2013-02-10 11:21:00,28.0,9.5,30.48,North,0,4.7,4.7,45,-99.99,,,-99.99,tws,2013-02-10 16:21:00,
2013-02-10 11:27:00,28.9,9.6,30.48,NE,45,5.0,5.0,44,-99.99,,,-99.99,tws,2013-02-10 16:27:00,
2013-02-10 11:33:00,30.6,9.6,30.48,NW,315,5.6,5.6,41,-99.99,,,-99.99,tws,2013-02-10 16:33:00,
2013-02-10 11:38:00,31.1,9.9,30.47,North,360,4.5,4.5,40,-99.99,,,-99.99,tws,2013-02-10 16:38:00,
2013-02-10 11:43:00,32.4,10.9,30.47,NNE,22,5.9,5.9,40,-99.99,,,-99.99,tws,2013-02-10 16:43:00,
2013-02-10 11:48:00,31.0,9.8,30.47,North,0,7.8,7.8,40,-99.99,,,-99.99,tws,2013-02-10 16:48:00,
2013-02-10 11:53:00,32.5,11.5,30.45,ESE,112,4.2,4.2,41,-99.99,,,-99.99,tws,2013-02-10 16:53:00,
2013-02-10 11:58:00,28.0,8.5,30.45,East,90,9.3,9.3,43,-99.99,,,-99.99,tws,2013-02-10 16:58:00,
2013-02-10 12:03:00,31.7,10.9,30.45,ESE,112,8.0,8.0,41,-99.99,,,-99.99,tws,2013-02-10 17:03:00,
2013-02-10 12:08:00,33.4,11.6,30.45,NE,45,4.7,4.7,40,-99.99,,,-99.99,tws,2013-02-10 17:08:00,
2013-02-10 12:13:00,33.5,11.2,30.45,NE,45,8.1,8.1,39,-99.99,,,-99.99,tws,2013-02-10 17:13:00,
2013-02-10 12:18:00,30.6,9.3,30.44,NE,45,6.6,6.6,40,-99.99,,,-99.99,tws,2013-02-10 17:18:00,
2013-02-10 12:23:00,31.8,10.5,30.44,ENE,67,10.0,10.0,40,-99.99,,,-99.99,tws,2013-02-10 17:23:00,
2013-02-10 12:28:00,30.3,10.3,30.43,ENE,67,10.4,10.4,42,-99.99,,,-99.99,tws,2013-02-10 17:28:00,
2013-02-10 12:34:00,38.0,13.8,30.43,ENE,67,1.1,1.1,36,-99.99,,,-99.99,tws,2013-02-10 17:34:00,
2013-02-10 12:39:00,33.2,10.9,30.43,East,90,5.7,5.7,39,-99.99,,,-99.99,tws,2013-02-10 17:39:00,
2013-02-10 12:44:00,34.2,11.7,30.43,NNE,22,4.9,4.9,39,-99.99,,,-99.99,tws,2013-02-10 17:44:00,
2013-02-10 12:49:00,35.0,10.7,30.43,NE,45,0.7,0.7,36,-99.99,,,-99.99,tws,2013-02-10 17:49:00,
2013-02-10 12:54:00,36.5,12.4,30.43,NNE,22,1.5,1.5,36,-99.99,,,-99.99,tws,2013-02-10 17:54:00,
2013-02-10 12:59:00,34.6,11.0,30.42,NE,45,0.2,0.2,37,-99.99,,,-99.99,tws,2013-02-10 17:59:00,
2013-02-10 13:04:00,35.8,13.0,30.41,NNE,22,6.2,6.2,38,-99.99,,,-99.99,tws,2013-02-10 18:04:00,
2013-02-10 13:10:00,38.4,12.5,30.41,NE,45,11.0,11.0,34,-99.99,,,-99.99,tws,2013-02-10 18:10:00,
2013-02-10 13:15:00,35.5,12.2,30.41,NNE,22,9.9,9.9,37,-99.99,,,-99.99,tws,2013-02-10 18:15:00,
2013-02-10 13:20:00,37.7,13.7,30.40,NNE,22,6.3,6.3,37,-99.99,,,-99.99,tws,2013-02-10 18:20:00,
2013-02-10 13:25:00,39.6,14.0,30.40,NE,45,4.2,4.2,34,-99.99,,,-99.99,tws,2013-02-10 18:25:00,
2013-02-10 13:30:00,42.4,15.1,30.41,West,270,0.0,0.0,32,-99.99,,,-99.99,tws,2013-02-10 18:30:00,
2013-02-10 13:35:00,43.8,16.6,30.41,North,360,0.0,0.0,33,-99.99,,,-99.99,tws,2013-02-10 18:35:00,
2013-02-10 13:40:00,42.6,14.4,30.40,NNE,22,0.1,0.1,31,-99.99,,,-99.99,tws,2013-02-10 18:40:00,
2013-02-10 13:45:00,38.9,13.1,30.41,NNE,22,0.3,0.3,34,-99.99,,,-99.99,tws,2013-02-10 18:45:00,
2013-02-10 13:50:00,45.7,18.0,30.40,ESE,112,0.0,0.0,32,-99.99,,,-99.99,tws,2013-02-10 18:50:00,
2013-02-10 13:55:00,41.4,15.0,30.39,NE,45,4.5,4.5,34,-99.99,,,-99.99,tws,2013-02-10 18:55:00,
2013-02-10 14:00:00,41.7,13.9,30.39,NE,45,2.8,2.8,32,-99.99,,,-99.99,tws,2013-02-10 19:00:00,
2013-02-10 14:05:00,44.6,17.1,30.39,NE,45,0.4,0.4,32,-99.99,,,-99.99,tws,2013-02-10 19:05:00,
2013-02-10 14:10:00,46.1,17.9,30.39,ENE,67,0.0,0.0,32,-99.99,,,-99.99,tws,2013-02-10 19:10:00,
2013-02-10 14:15:00,43.8,15.4,30.39,SSW,202,0.0,0.0,31,-99.99,,,-99.99,tws,2013-02-10 19:15:00,
2013-02-10 14:20:00,47.4,19.6,30.39,South,180,0.0,0.0,32,-99.99,,,-99.99,tws,2013-02-10 19:20:00,
2013-02-10 14:25:00,44.5,15.3,30.39,SE,135,0.1,0.1,30,-99.99,,,-99.99,tws,2013-02-10 19:25:00,
2013-02-10 14:30:00,43.5,14.8,30.39,ENE,67,2.2,2.2,31,-99.99,,,-99.99,tws,2013-02-10 19:30:00,
2013-02-10 14:35:00,46.0,17.4,30.39,ESE,112,6.4,6.4,31,-99.99,,,-99.99,tws,2013-02-10 19:35:00,
2013-02-10 14:40:00,39.5,12.5,30.40,East,90,5.3,5.3,32,-99.99,,,-99.99,tws,2013-02-10 19:40:00,
2013-02-10 14:45:00,39.7,13.4,30.41,East,90,0.0,0.0,33,-99.99,,,-99.99,tws,2013-02-10 19:45:00,
2013-02-10 14:50:00,40.1,14.9,30.41,NE,45,1.3,1.3,35,-99.99,,,-99.99,tws,2013-02-10 19:50:00,
2013-02-10 14:55:00,42.5,16.4,30.40,East,90,3.8,3.8,34,-99.99,,,-99.99,tws,2013-02-10 19:55:00,
2013-02-10 15:00:00,43.7,17.5,30.40,East,90,1.6,1.6,34,-99.99,,,-99.99,tws,2013-02-10 20:00:00,
2013-02-10 15:05:00,44.0,16.3,30.39,NE,45,0.3,0.3,32,-99.99,,,-99.99,tws,2013-02-10 20:05:00,
2013-02-10 15:11:00,39.2,14.4,30.39,NE,45,1.4,1.4,35,-99.99,,,-99.99,tws,2013-02-10 20:11:00,
2013-02-10 15:16:00,43.8,16.9,30.39,ESE,112,0.2,0.2,33,-99.99,,,-99.99,tws,2013-02-10 20:16:00,
2013-02-10 15:21:00,45.2,17.1,30.38,ESE,112,0.0,0.0,32,-99.99,,,-99.99,tws,2013-02-10 20:21:00,
2013-02-10 15:26:00,43.5,16.3,30.38,ESE,112,1.4,1.4,33,-99.99,,,-99.99,tws,2013-02-10 20:26:00,
2013-02-10 15:31:00,43.2,16.3,30.37,ESE,112,0.0,0.0,33,-99.99,,,-99.99,tws,2013-02-10 20:31:00,
2013-02-10 15:36:00,40.3,14.7,30.37,NNE,22,3.4,3.4,34,-99.99,,,-99.99,tws,2013-02-10 20:36:00,
2013-02-10 15:41:00,36.9,11.8,30.37,NNE,22,6.2,6.2,35,-99.99,,,-99.99,tws,2013-02-10 20:41:00,
2013-02-10 15:46:00,38.1,13.3,30.37,NNE,22,0.0,0.0,35,-99.99,,,-99.99,tws,2013-02-10 20:46:00,
2013-02-10 15:51:00,38.9,12.3,30.36,ESE,112,1.5,1.5,33,-99.99,,,-99.99,tws,2013-02-10 20:51:00,
2013-02-10 15:56:00,42.4,14.1,30.37,NNE,22,0.0,0.0,31,-99.99,,,-99.99,tws,2013-02-10 20:56:00,
2013-02-10 16:01:00,40.7,13.8,30.37,NE,45,1.0,1.0,33,-99.99,,,-99.99,tws,2013-02-10 21:01:00,
2013-02-10 16:06:00,41.1,13.3,30.36,North,360,2.8,2.8,31,-99.99,,,-99.99,tws,2013-02-10 21:06:00,
2013-02-10 16:11:00,41.0,13.0,30.36,North,360,3.2,3.2,31,-99.99,,,-99.99,tws,2013-02-10 21:11:00,
2013-02-10 16:16:00,41.8,13.0,30.37,NW,315,0.0,0.0,30,-99.99,,,-99.99,tws,2013-02-10 21:16:00,
2013-02-10 16:21:00,39.1,12.4,30.36,NNW,337,1.1,1.1,33,-99.99,,,-99.99,tws,2013-02-10 21:21:00,
2013-02-10 16:26:00,38.3,11.4,30.37,NW,315,4.0,4.0,32,-99.99,,,-99.99,tws,2013-02-10 21:26:00,
2013-02-10 16:31:00,39.5,12.3,30.37,NNW,337,2.4,2.4,32,-99.99,,,-99.99,tws,2013-02-10 21:31:00,
2013-02-10 16:36:00,40.7,12.9,30.37,NNW,337,0.0,0.0,31,-99.99,,,-99.99,tws,2013-02-10 21:36:00,
2013-02-10 16:42:00,37.3,10.1,30.37,NW,315,2.8,2.8,32,-99.99,,,-99.99,tws,2013-02-10 21:42:00,
2013-02-10 16:48:00,37.5,11.9,30.37,NW,315,0.6,0.6,34,-99.99,,,-99.99,tws,2013-02-10 21:48:00,
2013-02-10 16:53:00,36.9,12.8,30.36,NNE,22,0.0,0.0,36,-99.99,,,-99.99,tws,2013-02-10 21:53:00,
2013-02-10 16:58:00,36.2,13.1,30.36,North,360,0.0,0.0,38,-99.99,,,-99.99,tws,2013-02-10 21:58:00,
2013-02-10 17:03:00,37.0,12.7,30.36,North,360,0.0,0.0,36,-99.99,,,-99.99,tws,2013-02-10 22:03:00,
2013-02-10 17:08:00,36.4,12.4,30.36,North,0,0.0,0.0,36,-99.99,,,-99.99,tws,2013-02-10 22:08:00,
2013-02-10 17:13:00,34.8,11.5,30.36,NW,315,0.0,0.0,37,-99.99,,,-99.99,tws,2013-02-10 22:13:00,
2013-02-10 17:18:00,32.0,10.3,30.37,WNW,292,0.0,0.0,40,-99.99,,,-99.99,tws,2013-02-10 22:18:00,
2013-02-10 17:23:00,31.5,11.1,30.36,West,270,0.0,0.0,42,-99.99,,,-99.99,tws,2013-02-10 22:23:00,
2013-02-10 17:28:00,30.6,12.9,30.36,East,90,0.0,0.0,47,-99.99,,,-99.99,tws,2013-02-10 22:28:00,
2013-02-10 17:33:00,28.6,11.6,30.36,East,90,0.0,0.0,48,-99.99,,,-99.99,tws,2013-02-10 22:33:00,
2013-02-10 17:38:00,28.5,11.2,30.36,East,90,0.0,0.0,47,-99.99,,,-99.99,tws,2013-02-10 22:38:00,
2013-02-10 17:43:00,30.5,12.3,30.36,South,180,0.0,0.0,46,-99.99,,,-99.99,tws,2013-02-10 22:43:00,
2013-02-10 17:48:00,28.4,13.8,30.36,South,180,0.0,0.0,54,-99.99,,,-99.99,tws,2013-02-10 22:48:00,
2013-02-10 17:53:00,27.9,13.5,30.36,SSE,157,0.0,0.0,54,-99.99,,,-99.99,tws,2013-02-10 22:53:00,
2013-02-10 17:58:00,26.6,9.1,30.37,WSW,247,0.0,0.0,47,-99.99,,,-99.99,tws,2013-02-10 22:58:00,
2013-02-10 18:03:00,27.6,9.6,30.36,WSW,247,0.0,0.0,46,-99.99,,,-99.99,tws,2013-02-10 23:03:00,
2013-02-10 18:08:00,26.5,9.5,30.36,WSW,247,0.0,0.0,48,-99.99,,,-99.99,tws,2013-02-10 23:08:00,
2013-02-10 18:14:00,27.3,12.1,30.36,SSW,202,1.4,1.4,52,-99.99,,,-99.99,tws,2013-02-10 23:14:00,
2013-02-10 18:19:00,26.5,13.1,30.36,SSW,202,0.0,0.0,56,-99.99,,,-99.99,tws,2013-02-10 23:19:00,
2013-02-10 18:24:00,23.9,10.0,30.36,SE,135,0.0,0.0,54,-99.99,,,-99.99,tws,2013-02-10 23:24:00,
2013-02-10 18:30:00,24.1,10.5,30.36,SE,135,0.0,0.0,55,-99.99,,,-99.99,tws,2013-02-10 23:30:00,
2013-02-10 18:35:00,23.7,9.6,30.36,SE,135,1.0,1.0,54,-99.99,,,-99.99,tws,2013-02-10 23:35:00,
2013-02-10 18:41:00,23.8,11.3,30.36,SSE,157,3.7,3.7,58,-99.99,,,-99.99,tws,2013-02-10 23:41:00,
2013-02-10 18:46:00,23.2,10.7,30.36,SSE,157,1.5,1.5,58,-99.99,,,-99.99,tws,2013-02-10 23:46:00,
2013-02-10 18:51:00,22.8,9.5,30.36,SE,135,1.0,1.0,56,-99.99,,,-99.99,tws,2013-02-10 23:51:00,
2013-02-10 18:56:00,22.0,9.1,30.36,SE,135,2.9,2.9,57,-99.99,,,-99.99,tws,2013-02-10 23:56:00,
2013-02-10 19:01:00,22.5,9.6,30.36,SE,135,0.0,0.0,57,-99.99,,,-99.99,tws,2013-02-11 00:01:00,
2013-02-10 19:06:00,22.2,10.1,30.36,SSE,157,3.3,3.3,59,-99.99,,,-99.99,tws,2013-02-11 00:06:00,
2013-02-10 19:11:00,21.1,8.6,30.35,SE,135,4.6,4.6,58,-99.99,,,-99.99,tws,2013-02-11 00:11:00,
2013-02-10 19:16:00,20.8,8.3,30.35,SE,135,4.9,4.9,58,-99.99,,,-99.99,tws,2013-02-11 00:16:00,
2013-02-10 19:21:00,20.9,9.3,30.35,SSE,157,4.4,4.4,60,-99.99,,,-99.99,tws,2013-02-11 00:21:00,
2013-02-10 19:26:00,20.2,8.3,30.35,SE,135,4.0,4.0,59,-99.99,,,-99.99,tws,2013-02-11 00:26:00,
2013-02-10 19:31:00,20.0,8.4,30.36,SSE,157,6.5,6.5,60,-99.99,,,-99.99,tws,2013-02-11 00:31:00,
2013-02-10 19:36:00,20.2,8.7,30.35,SE,135,4.0,4.0,60,-99.99,,,-99.99,tws,2013-02-11 00:36:00,
2013-02-10 19:41:00,20.0,8.8,30.35,SSE,157,4.7,4.7,61,-99.99,,,-99.99,tws,2013-02-11 00:41:00,
2013-02-10 19:46:00,20.1,9.3,30.35,SSE,157,5.0,5.0,62,-99.99,,,-99.99,tws,2013-02-11 00:46:00,
2013-02-10 19:51:00,20.9,7.8,30.34,SSE,157,5.3,5.3,56,-99.99,,,-99.99,tws,2013-02-11 00:51:00,
2013-02-10 19:56:00,19.8,8.3,30.34,SSE,157,4.6,4.6,60,-99.99,,,-99.99,tws,2013-02-11 00:56:00,
2013-02-10 20:01:00,20.5,8.7,30.34,SSE,157,3.5,3.5,59,-99.99,,,-99.99,tws,2013-02-11 01:01:00,
2013-02-10 20:06:00,19.3,9.2,30.34,SE,135,3.6,3.6,64,-99.99,,,-99.99,tws,2013-02-11 01:06:00,
2013-02-10 20:11:00,17.7,8.3,30.34,SSE,157,4.8,4.8,66,-99.99,,,-99.99,tws,2013-02-11 01:11:00,
2013-02-10 20:16:00,17.8,8.5,30.34,SE,135,5.2,5.2,66,-99.99,,,-99.99,tws,2013-02-11 01:16:00,
2013-02-10 20:21:00,16.8,7.4,30.34,SE,135,6.1,6.1,66,-99.99,,,-99.99,tws,2013-02-11 01:21:00,
2013-02-10 20:26:00,17.1,7.5,30.34,SE,135,5.2,5.2,65,-99.99,,,-99.99,tws,2013-02-11 01:26:00,
2013-02-10 20:31:00,17.3,7.8,30.34,SSE,157,3.6,3.6,65,-99.99,,,-99.99,tws,2013-02-11 01:31:00,
2013-02-10 20:36:00,17.7,8.3,30.34,SE,135,3.7,3.7,66,-99.99,,,-99.99,tws,2013-02-11 01:36:00,
2013-02-10 20:41:00,17.4,7.7,30.34,SE,135,4.6,4.6,65,-99.99,,,-99.99,tws,2013-02-11 01:41:00,
2013-02-10 20:46:00,17.4,7.1,30.33,SE,135,3.6,3.6,63,-99.99,,,-99.99,tws,2013-02-11 01:46:00,
2013-02-10 20:51:00,18.0,7.8,30.33,SE,135,5.0,5.0,64,-99.99,,,-99.99,tws,2013-02-11 01:51:00,
2013-02-10 20:56:00,18.3,8.2,30.33,SE,135,2.6,2.6,64,-99.99,,,-99.99,tws,2013-02-11 01:56:00,
2013-02-10 21:01:00,17.8,8.3,30.33,SSE,157,5.2,5.2,66,-99.99,,,-99.99,tws,2013-02-11 02:01:00,
2013-02-10 21:06:00,18.3,8.6,30.32,SE,135,4.9,4.9,65,-99.99,,,-99.99,tws,2013-02-11 02:06:00,
2013-02-10 21:11:00,17.7,7.7,30.32,SE,135,6.8,6.8,64,-99.99,,,-99.99,tws,2013-02-11 02:11:00,
2013-02-10 21:16:00,17.7,7.6,30.32,SE,135,7.3,7.3,64,-99.99,,,-99.99,tws,2013-02-11 02:16:00,
2013-02-10 21:21:00,18.6,8.1,30.32,SSE,157,3.7,3.7,63,-99.99,,,-99.99,tws,2013-02-11 02:21:00,
2013-02-10 21:26:00,18.0,8.3,30.32,SSE,157,4.6,4.6,65,-99.99,,,-99.99,tws,2013-02-11 02:26:00,
2013-02-10 21:31:00,18.5,7.7,30.32,SE,135,4.8,4.8,62,-99.99,,,-99.99,tws,2013-02-11 02:31:00,
2013-02-10 21:36:00,18.9,7.5,30.32,SE,135,3.8,3.8,60,-99.99,,,-99.99,tws,2013-02-11 02:36:00,
2013-02-10 21:41:00,18.7,7.5,30.32,SSE,157,5.3,5.3,61,-99.99,,,-99.99,tws,2013-02-11 02:41:00,
2013-02-10 21:46:00,18.9,7.4,30.31,South,180,8.0,8.0,60,-99.99,,,-99.99,tws,2013-02-11 02:46:00,
2013-02-10 21:51:00,18.6,7.5,30.31,SSE,157,7.5,7.5,61,-99.99,,,-99.99,tws,2013-02-11 02:51:00,
2013-02-10 21:56:00,19.3,7.8,30.32,SSE,157,5.9,5.9,60,-99.99,,,-99.99,tws,2013-02-11 02:56:00,
2013-02-10 22:01:00,19.6,7.9,30.31,South,180,5.2,5.2,60,-99.99,,,-99.99,tws,2013-02-11 03:01:00,
2013-02-10 22:06:00,19.4,8.1,30.31,SE,135,7.5,7.5,61,-99.99,,,-99.99,tws,2013-02-11 03:06:00,
2013-02-10 22:11:00,19.0,7.7,30.30,SE,135,7.9,7.9,61,-99.99,,,-99.99,tws,2013-02-11 03:11:00,
2013-02-10 22:16:00,19.0,7.7,30.30,SSE,157,8.3,8.3,61,-99.99,,,-99.99,tws,2013-02-11 03:16:00,
2013-02-10 22:21:00,18.5,7.5,30.30,SSE,157,7.2,7.2,61,-99.99,,,-99.99,tws,2013-02-11 03:21:00,
2013-02-10 22:26:00,18.3,7.4,30.30,SE,135,11.3,11.3,62,-99.99,,,-99.99,tws,2013-02-11 03:26:00,
2013-02-10 22:31:00,18.1,7.1,30.30,SSE,157,12.0,12.0,62,-99.99,,,-99.99,tws,2013-02-11 03:31:00,
2013-02-10 22:36:00,18.9,7.8,30.30,SSE,157,10.4,10.4,61,-99.99,,,-99.99,tws,2013-02-11 03:36:00,
2013-02-10 22:41:00,19.3,7.7,30.29,South,180,10.1,10.1,60,-99.99,,,-99.99,tws,2013-02-11 03:41:00,
2013-02-10 22:46:00,20.2,8.1,30.29,South,180,14.7,14.7,59,-99.99,,,-99.99,tws,2013-02-11 03:46:00,
2013-02-10 22:51:00,20.1,8.2,30.29,SSE,157,8.7,8.7,59,-99.99,,,-99.99,tws,2013-02-11 03:51:00,
2013-02-10 22:56:00,20.8,8.8,30.29,SSE,157,6.4,6.4,59,-99.99,,,-99.99,tws,2013-02-11 03:56:00,
2013-02-10 23:01:00,21.0,8.8,30.29,SSE,157,7.0,7.0,59,-99.99,,,-99.99,tws,2013-02-11 04:01:00,
2013-02-10 23:06:00,21.3,8.5,30.28,SSE,157,8.3,8.3,57,-99.99,,,-99.99,tws,2013-02-11 04:06:00,
2013-02-10 23:11:00,21.8,8.7,30.29,SSE,157,6.5,6.5,56,-99.99,,,-99.99,tws,2013-02-11 04:11:00,
2013-02-10 23:16:00,21.5,8.6,30.28,SSE,157,7.9,7.9,57,-99.99,,,-99.99,tws,2013-02-11 04:16:00,
2013-02-10 23:21:00,21.2,8.7,30.28,South,180,10.7,10.7,58,-99.99,,,-99.99,tws,2013-02-11 04:21:00,
2013-02-10 23:26:00,21.1,8.3,30.28,South,180,10.9,10.9,57,-99.99,,,-99.99,tws,2013-02-11 04:26:00,
2013-02-10 23:31:00,21.6,8.8,30.28,South,180,12.0,12.0,57,-99.99,,,-99.99,tws,2013-02-11 04:31:00,
2013-02-10 23:36:00,21.8,9.0,30.28,South,180,11.3,11.3,57,-99.99,,,-99.99,tws,2013-02-11 04:36:00,
2013-02-10 23:41:00,22.0,9.4,30.27,South,180,10.1,10.1,58,-99.99,,,-99.99,tws,2013-02-11 04:41:00,
2013-02-10 23:46:00,21.9,9.2,30.27,SSE,157,11.0,11.0,57,-99.99,,,-99.99,tws,2013-02-11 04:46:00,
2013-02-10 23:51:00,22.2,9.2,30.27,SSE,157,11.3,11.3,57,-99.99,,,-99.99,tws,2013-02-11 04:51:00,
2013-02-10 23:56:00,22.7,9.6,30.27,South,180,8.3,8.3,56,-99.99,,,-99.99,tws,2013-02-11 04:56:00,